sensor_id;sensor_type;location;lat;lon;timestamp;P1;durP1;ratioP1;P2;durP2;ratioP2
34136;SDS011;20414;50.860;4.382;2022-08-18T00:01:42;2.17;;;2.08;;
34136;SDS011;20414;50.860;4.382;2022-08-18T00:04:12;2.10;;;2.00;;
34136;SDS011;20414;50.860;4.382;2022-08-18T00:06:39;2.25;;;2.05;;
34136;SDS011;20414;50.860;4.382;2022-08-18T00:09:06;2.40;;;2.20;;
34136;SDS011;20414;50.860;4.382;2022-08-18T00:11:34;2.17;;;2.08;;
34136;SDS011;20414;50.860;4.382;2022-08-18T00:14:02;2.35;;;2.15;;
34136;SDS011;20414;50.860;4.382;2022-08-18T00:16:29;3.13;;;2.10;;
34136;SDS011;20414;50.860;4.382;2022-08-18T00:18:54;2.42;;;2.22;;
34136;SDS011;20414;50.860;4.382;2022-08-18T00:21:20;2.30;;;2.20;;
34136;SDS011;20414;50.860;4.382;2022-08-18T00:23:46;3.80;;;2.42;;
34136;SDS011;20414;50.860;4.382;2022-08-18T00:26:11;2.65;;;2.45;;
34136;SDS011;20414;50.860;4.382;2022-08-18T00:28:37;3.35;;;2.47;;
34136;SDS011;20414;50.860;4.382;2022-08-18T00:31:03;2.08;;;1.90;;
34136;SDS011;20414;50.860;4.382;2022-08-18T00:33:29;3.05;;;2.30;;
34136;SDS011;20414;50.860;4.382;2022-08-18T00:35:55;2.35;;;2.15;;
34136;SDS011;20414;50.860;4.382;2022-08-18T00:38:21;2.10;;;2.00;;
34136;SDS011;20414;50.860;4.382;2022-08-18T00:40:47;2.60;;;2.13;;
34136;SDS011;20414;50.860;4.382;2022-08-18T00:43:28;3.03;;;2.25;;
34136;SDS011;20414;50.860;4.382;2022-08-18T00:45:59;2.20;;;2.00;;
34136;SDS011;20414;50.860;4.382;2022-08-18T00:48:25;2.35;;;2.15;;
34136;SDS011;20414;50.860;4.382;2022-08-18T00:50:56;3.95;;;2.13;;
34136;SDS011;20414;50.860;4.382;2022-08-18T00:55:55;2.60;;;2.40;;
34136;SDS011;20414;50.860;4.382;2022-08-18T00:58:26;2.50;;;2.30;;
34136;SDS011;20414;50.860;4.382;2022-08-18T01:00:58;2.33;;;2.13;;
34136;SDS011;20414;50.860;4.382;2022-08-18T01:03:27;2.10;;;2.00;;
34136;SDS011;20414;50.860;4.382;2022-08-18T01:06:36;2.67;;;2.47;;
34136;SDS011;20414;50.860;4.382;2022-08-18T01:08:50;2.85;;;2.05;;
34136;SDS011;20414;50.860;4.382;2022-08-18T01:11:16;2.08;;;1.98;;
34136;SDS011;20414;50.860;4.382;2022-08-18T01:13:42;2.35;;;2.15;;
34136;SDS011;20414;50.860;4.382;2022-08-18T01:16:08;2.15;;;2.05;;
34136;SDS011;20414;50.860;4.382;2022-08-18T01:19:09;2.22;;;2.13;;
34136;SDS011;20414;50.860;4.382;2022-08-18T01:21:56;2.60;;;2.40;;
34136;SDS011;20414;50.860;4.382;2022-08-18T01:24:29;2.38;;;2.17;;
34136;SDS011;20414;50.860;4.382;2022-08-18T01:27:34;2.20;;;2.00;;
34136;SDS011;20414;50.860;4.382;2022-08-18T01:30:05;2.30;;;2.10;;
34136;SDS011;20414;50.860;4.382;2022-08-18T01:32:34;2.20;;;2.10;;
34136;SDS011;20414;50.860;4.382;2022-08-18T01:35:00;2.40;;;2.13;;
34136;SDS011;20414;50.860;4.382;2022-08-18T01:37:26;2.53;;;2.33;;
34136;SDS011;20414;50.860;4.382;2022-08-18T01:39:53;2.50;;;2.30;;
34136;SDS011;20414;50.860;4.382;2022-08-18T01:42:19;2.22;;;2.03;;
34136;SDS011;20414;50.860;4.382;2022-08-18T01:44:45;2.20;;;2.10;;
34136;SDS011;20414;50.860;4.382;2022-08-18T01:47:13;2.38;;;2.17;;
34136;SDS011;20414;50.860;4.382;2022-08-18T01:49:39;2.35;;;2.15;;
34136;SDS011;20414;50.860;4.382;2022-08-18T01:52:07;2.20;;;2.00;;
34136;SDS011;20414;50.860;4.382;2022-08-18T01:54:34;2.33;;;2.13;;
34136;SDS011;20414;50.860;4.382;2022-08-18T01:57:01;2.42;;;2.22;;
34136;SDS011;20414;50.860;4.382;2022-08-18T01:59:27;2.55;;;2.30;;
34136;SDS011;20414;50.860;4.382;2022-08-18T02:01:53;2.40;;;2.20;;
34136;SDS011;20414;50.860;4.382;2022-08-18T02:04:21;2.33;;;2.13;;
34136;SDS011;20414;50.860;4.382;2022-08-18T02:06:51;2.50;;;2.30;;
34136;SDS011;20414;50.860;4.382;2022-08-18T02:09:17;2.22;;;2.13;;
34136;SDS011;20414;50.860;4.382;2022-08-18T02:11:42;2.30;;;2.10;;
34136;SDS011;20414;50.860;4.382;2022-08-18T02:14:08;2.00;;;1.90;;
34136;SDS011;20414;50.860;4.382;2022-08-18T02:16:34;2.20;;;2.00;;
34136;SDS011;20414;50.860;4.382;2022-08-18T02:18:59;2.50;;;2.30;;
34136;SDS011;20414;50.860;4.382;2022-08-18T02:21:25;2.35;;;2.15;;
34136;SDS011;20414;50.860;4.382;2022-08-18T02:23:51;2.20;;;2.00;;
34136;SDS011;20414;50.860;4.382;2022-08-18T02:26:16;2.05;;;1.95;;
34136;SDS011;20414;50.860;4.382;2022-08-18T02:28:43;2.40;;;2.20;;
34136;SDS011;20414;50.860;4.382;2022-08-18T02:31:11;2.42;;;2.22;;
34136;SDS011;20414;50.860;4.382;2022-08-18T02:33:43;2.45;;;2.25;;
34136;SDS011;20414;50.860;4.382;2022-08-18T02:36:10;2.20;;;2.10;;
34136;SDS011;20414;50.860;4.382;2022-08-18T02:38:36;2.45;;;2.25;;
34136;SDS011;20414;50.860;4.382;2022-08-18T02:41:03;2.33;;;2.13;;
34136;SDS011;20414;50.860;4.382;2022-08-18T02:43:30;2.10;;;1.90;;
34136;SDS011;20414;50.860;4.382;2022-08-18T02:45:57;2.55;;;2.35;;
34136;SDS011;20414;50.860;4.382;2022-08-18T02:48:23;2.58;;;2.38;;
34136;SDS011;20414;50.860;4.382;2022-08-18T02:51:10;1.95;;;1.85;;
34136;SDS011;20414;50.860;4.382;2022-08-18T02:53:38;2.53;;;2.33;;
34136;SDS011;20414;50.860;4.382;2022-08-18T02:58:44;2.20;;;2.00;;
34136;SDS011;20414;50.860;4.382;2022-08-18T03:01:10;2.30;;;2.10;;
34136;SDS011;20414;50.860;4.382;2022-08-18T03:03:36;2.42;;;2.22;;
34136;SDS011;20414;50.860;4.382;2022-08-18T03:06:02;2.30;;;2.10;;
34136;SDS011;20414;50.860;4.382;2022-08-18T03:08:28;2.50;;;2.30;;
34136;SDS011;20414;50.860;4.382;2022-08-18T03:10:54;2.42;;;2.22;;
34136;SDS011;20414;50.860;4.382;2022-08-18T03:13:20;2.40;;;2.20;;
34136;SDS011;20414;50.860;4.382;2022-08-18T03:15:46;2.30;;;2.10;;
34136;SDS011;20414;50.860;4.382;2022-08-18T03:18:11;2.45;;;2.25;;
34136;SDS011;20414;50.860;4.382;2022-08-18T03:20:38;2.60;;;2.40;;
34136;SDS011;20414;50.860;4.382;2022-08-18T03:23:04;2.38;;;2.17;;
34136;SDS011;20414;50.860;4.382;2022-08-18T03:25:30;2.30;;;2.10;;
34136;SDS011;20414;50.860;4.382;2022-08-18T03:27:56;2.35;;;2.15;;
34136;SDS011;20414;50.860;4.382;2022-08-18T03:30:22;2.28;;;2.17;;
34136;SDS011;20414;50.860;4.382;2022-08-18T03:32:48;2.40;;;2.20;;
34136;SDS011;20414;50.860;4.382;2022-08-18T03:35:14;2.25;;;2.05;;
34136;SDS011;20414;50.860;4.382;2022-08-18T03:37:40;2.60;;;2.40;;
34136;SDS011;20414;50.860;4.382;2022-08-18T03:40:07;2.60;;;2.40;;
34136;SDS011;20414;50.860;4.382;2022-08-18T03:42:34;2.20;;;2.00;;
34136;SDS011;20414;50.860;4.382;2022-08-18T03:45:00;2.10;;;2.00;;
34136;SDS011;20414;50.860;4.382;2022-08-18T03:47:26;2.55;;;2.33;;
34136;SDS011;20414;50.860;4.382;2022-08-18T03:49:52;2.60;;;2.40;;
34136;SDS011;20414;50.860;4.382;2022-08-18T03:52:18;2.72;;;2.53;;
34136;SDS011;20414;50.860;4.382;2022-08-18T03:54:44;2.47;;;2.28;;
34136;SDS011;20414;50.860;4.382;2022-08-18T03:57:10;2.78;;;2.58;;
34136;SDS011;20414;50.860;4.382;2022-08-18T03:59:37;2.20;;;2.10;;
34136;SDS011;20414;50.860;4.382;2022-08-18T04:02:05;2.38;;;2.17;;
34136;SDS011;20414;50.860;4.382;2022-08-18T04:04:31;2.55;;;2.35;;
34136;SDS011;20414;50.860;4.382;2022-08-18T04:06:59;2.40;;;2.20;;
34136;SDS011;20414;50.860;4.382;2022-08-18T04:09:31;2.45;;;2.25;;
34136;SDS011;20414;50.860;4.382;2022-08-18T04:12:01;2.33;;;2.13;;
34136;SDS011;20414;50.860;4.382;2022-08-18T04:14:33;2.45;;;2.25;;
34136;SDS011;20414;50.860;4.382;2022-08-18T04:16:58;2.70;;;2.50;;
34136;SDS011;20414;50.860;4.382;2022-08-18T04:19:24;2.40;;;2.20;;
34136;SDS011;20414;50.860;4.382;2022-08-18T04:21:50;2.50;;;2.30;;
34136;SDS011;20414;50.860;4.382;2022-08-18T04:24:17;2.50;;;2.30;;
34136;SDS011;20414;50.860;4.382;2022-08-18T04:26:44;2.05;;;1.95;;
34136;SDS011;20414;50.860;4.382;2022-08-18T04:29:15;2.65;;;2.45;;
34136;SDS011;20414;50.860;4.382;2022-08-18T04:31:43;2.40;;;2.20;;
34136;SDS011;20414;50.860;4.382;2022-08-18T04:34:09;2.60;;;2.40;;
34136;SDS011;20414;50.860;4.382;2022-08-18T04:36:36;2.47;;;2.28;;
34136;SDS011;20414;50.860;4.382;2022-08-18T04:39:03;2.45;;;2.28;;
34136;SDS011;20414;50.860;4.382;2022-08-18T04:41:30;3.00;;;2.10;;
34136;SDS011;20414;50.860;4.382;2022-08-18T04:43:58;2.40;;;2.20;;
34136;SDS011;20414;50.860;4.382;2022-08-18T04:46:26;2.30;;;2.10;;
34136;SDS011;20414;50.860;4.382;2022-08-18T04:48:53;2.30;;;2.10;;
34136;SDS011;20414;50.860;4.382;2022-08-18T04:51:23;2.28;;;2.10;;
34136;SDS011;20414;50.860;4.382;2022-08-18T04:53:50;2.20;;;2.00;;
34136;SDS011;20414;50.860;4.382;2022-08-18T04:59:07;2.42;;;2.20;;
34136;SDS011;20414;50.860;4.382;2022-08-18T05:01:36;2.25;;;2.10;;
34136;SDS011;20414;50.860;4.382;2022-08-18T05:04:04;2.45;;;2.25;;
34136;SDS011;20414;50.860;4.382;2022-08-18T05:06:31;2.88;;;2.38;;
34136;SDS011;20414;50.860;4.382;2022-08-18T05:08:58;2.35;;;2.15;;
34136;SDS011;20414;50.860;4.382;2022-08-18T05:11:26;2.28;;;2.15;;
34136;SDS011;20414;50.860;4.382;2022-08-18T05:13:56;2.10;;;1.95;;
34136;SDS011;20414;50.860;4.382;2022-08-18T05:16:22;1.93;;;1.83;;
34136;SDS011;20414;50.860;4.382;2022-08-18T05:18:49;2.25;;;2.08;;
34136;SDS011;20414;50.860;4.382;2022-08-18T05:21:15;2.50;;;2.30;;
34136;SDS011;20414;50.860;4.382;2022-08-18T05:23:42;2.13;;;1.98;;
34136;SDS011;20414;50.860;4.382;2022-08-18T05:26:09;2.00;;;1.90;;
34136;SDS011;20414;50.860;4.382;2022-08-18T05:28:37;2.40;;;2.20;;
34136;SDS011;20414;50.860;4.382;2022-08-18T05:31:10;2.30;;;2.20;;
34136;SDS011;20414;50.860;4.382;2022-08-18T05:33:37;2.40;;;2.20;;
34136;SDS011;20414;50.860;4.382;2022-08-18T05:41:43;2.08;;;1.88;;
34136;SDS011;20414;50.860;4.382;2022-08-18T05:44:14;2.13;;;2.03;;
34136;SDS011;20414;50.860;4.382;2022-08-18T05:46:49;2.08;;;1.98;;
34136;SDS011;20414;50.860;4.382;2022-08-18T05:49:19;2.20;;;2.00;;
34136;SDS011;20414;50.860;4.382;2022-08-18T05:51:56;3.00;;;1.98;;
34136;SDS011;20414;50.860;4.382;2022-08-18T05:54:44;2.42;;;2.22;;
34136;SDS011;20414;50.860;4.382;2022-08-18T05:57:43;2.42;;;2.22;;
34136;SDS011;20414;50.860;4.382;2022-08-18T06:00:15;2.25;;;2.05;;
34136;SDS011;20414;50.860;4.382;2022-08-18T06:02:54;2.40;;;2.10;;
34136;SDS011;20414;50.860;4.382;2022-08-18T06:05:30;2.17;;;1.98;;
34136;SDS011;20414;50.860;4.382;2022-08-18T06:08:01;2.10;;;2.00;;
34136;SDS011;20414;50.860;4.382;2022-08-18T06:10:31;2.30;;;2.10;;
34136;SDS011;20414;50.860;4.382;2022-08-18T06:12:57;2.50;;;2.30;;
34136;SDS011;20414;50.860;4.382;2022-08-18T06:15:31;1.98;;;1.88;;
34136;SDS011;20414;50.860;4.382;2022-08-18T06:30:35;2.50;;;2.30;;
34136;SDS011;20414;50.860;4.382;2022-08-18T06:32:45;2.10;;;2.00;;
34136;SDS011;20414;50.860;4.382;2022-08-18T06:40:45;2.30;;;2.20;;
34136;SDS011;20414;50.860;4.382;2022-08-18T06:43:12;2.08;;;1.98;;
34136;SDS011;20414;50.860;4.382;2022-08-18T06:45:41;2.38;;;2.17;;
34136;SDS011;20414;50.860;4.382;2022-08-18T06:51:00;2.80;;;2.10;;
34136;SDS011;20414;50.860;4.382;2022-08-18T06:58:52;2.85;;;2.10;;
34136;SDS011;20414;50.860;4.382;2022-08-18T07:01:19;2.85;;;2.30;;
34136;SDS011;20414;50.860;4.382;2022-08-18T07:03:54;3.28;;;2.33;;
34136;SDS011;20414;50.860;4.382;2022-08-18T07:08:46;2.65;;;2.40;;
34136;SDS011;20414;50.860;4.382;2022-08-18T07:14:21;2.97;;;2.00;;
34136;SDS011;20414;50.860;4.382;2022-08-18T07:16:48;2.45;;;2.25;;
34136;SDS011;20414;50.860;4.382;2022-08-18T07:19:15;2.53;;;1.83;;
34136;SDS011;20414;50.860;4.382;2022-08-18T07:22:00;2.20;;;2.00;;
34136;SDS011;20414;50.860;4.382;2022-08-18T07:24:30;2.40;;;2.20;;
34136;SDS011;20414;50.860;4.382;2022-08-18T07:30:28;2.40;;;2.20;;
34136;SDS011;20414;50.860;4.382;2022-08-18T07:32:39;2.03;;;1.83;;
34136;SDS011;20414;50.860;4.382;2022-08-18T07:35:14;4.22;;;2.30;;
34136;SDS011;20414;50.860;4.382;2022-08-18T07:37:55;2.20;;;2.03;;
34136;SDS011;20414;50.860;4.382;2022-08-18T07:40:31;2.35;;;2.15;;
34136;SDS011;20414;50.860;4.382;2022-08-18T07:43:07;2.60;;;2.20;;
34136;SDS011;20414;50.860;4.382;2022-08-18T07:45:44;1.90;;;1.80;;
34136;SDS011;20414;50.860;4.382;2022-08-18T07:50:41;1.92;;;1.83;;
34136;SDS011;20414;50.860;4.382;2022-08-18T07:55:49;2.00;;;1.90;;
34136;SDS011;20414;50.860;4.382;2022-08-18T07:58:28;2.17;;;1.98;;
34136;SDS011;20414;50.860;4.382;2022-08-18T08:03:25;2.55;;;1.77;;
34136;SDS011;20414;50.860;4.382;2022-08-18T08:08:44;2.22;;;2.03;;
34136;SDS011;20414;50.860;4.382;2022-08-18T08:28:17;2.63;;;2.03;;
34136;SDS011;20414;50.860;4.382;2022-08-18T08:33:41;2.13;;;1.92;;
34136;SDS011;20414;50.860;4.382;2022-08-18T08:36:13;2.00;;;1.90;;
34136;SDS011;20414;50.860;4.382;2022-08-18T08:38:52;1.90;;;1.80;;
34136;SDS011;20414;50.860;4.382;2022-08-18T08:41:35;1.88;;;1.77;;
34136;SDS011;20414;50.860;4.382;2022-08-18T08:44:10;2.30;;;2.10;;
34136;SDS011;20414;50.860;4.382;2022-08-18T08:46:43;2.33;;;2.13;;
34136;SDS011;20414;50.860;4.382;2022-08-18T08:57:17;2.15;;;1.95;;
34136;SDS011;20414;50.860;4.382;2022-08-18T08:59:46;1.98;;;1.88;;
34136;SDS011;20414;50.860;4.382;2022-08-18T09:02:46;1.77;;;1.67;;
34136;SDS011;20414;50.860;4.382;2022-08-18T09:05:23;1.80;;;1.70;;
34136;SDS011;20414;50.860;4.382;2022-08-18T09:10:56;1.88;;;1.77;;
34136;SDS011;20414;50.860;4.382;2022-08-18T09:19:38;1.75;;;1.65;;
34136;SDS011;20414;50.860;4.382;2022-08-18T09:22:29;1.92;;;1.83;;
34136;SDS011;20414;50.860;4.382;2022-08-18T09:25:00;1.65;;;1.55;;
34136;SDS011;20414;50.860;4.382;2022-08-18T09:33:09;1.92;;;1.83;;
34136;SDS011;20414;50.860;4.382;2022-08-18T09:35:42;2.00;;;1.80;;
34136;SDS011;20414;50.860;4.382;2022-08-18T09:38:23;3.35;;;1.65;;
34136;SDS011;20414;50.860;4.382;2022-08-18T09:41:35;2.13;;;1.92;;
34136;SDS011;20414;50.860;4.382;2022-08-18T09:44:11;1.63;;;1.52;;
34136;SDS011;20414;50.860;4.382;2022-08-18T09:51:52;1.85;;;1.60;;
34136;SDS011;20414;50.860;4.382;2022-08-18T09:54:19;2.00;;;1.90;;
34136;SDS011;20414;50.860;4.382;2022-08-18T10:01:58;1.98;;;1.88;;
34136;SDS011;20414;50.860;4.382;2022-08-18T10:09:58;1.80;;;1.70;;
34136;SDS011;20414;50.860;4.382;2022-08-18T10:22:55;1.98;;;1.88;;
34136;SDS011;20414;50.860;4.382;2022-08-18T10:27:55;2.17;;;1.98;;
34136;SDS011;20414;50.860;4.382;2022-08-18T10:32:56;2.28;;;1.80;;
34136;SDS011;20414;50.860;4.382;2022-08-18T10:38:11;1.98;;;1.75;;
34136;SDS011;20414;50.860;4.382;2022-08-18T10:41:02;1.80;;;1.70;;
34136;SDS011;20414;50.860;4.382;2022-08-18T10:43:34;1.90;;;1.55;;
34136;SDS011;20414;50.860;4.382;2022-08-18T10:46:16;2.25;;;2.00;;
34136;SDS011;20414;50.860;4.382;2022-08-18T10:49:15;1.85;;;1.75;;
34136;SDS011;20414;50.860;4.382;2022-08-18T10:51:52;1.80;;;1.70;;
34136;SDS011;20414;50.860;4.382;2022-08-18T11:00:17;1.52;;;1.42;;
34136;SDS011;20414;50.860;4.382;2022-08-18T11:05:17;1.88;;;1.77;;
34136;SDS011;20414;50.860;4.382;2022-08-18T11:07:46;1.77;;;1.67;;
34136;SDS011;20414;50.860;4.382;2022-08-18T11:10:18;1.90;;;1.80;;
34136;SDS011;20414;50.860;4.382;2022-08-18T11:18:44;1.73;;;1.63;;
34136;SDS011;20414;50.860;4.382;2022-08-18T11:21:24;1.80;;;1.70;;
34136;SDS011;20414;50.860;4.382;2022-08-18T11:26:32;1.85;;;1.75;;
34136;SDS011;20414;50.860;4.382;2022-08-18T11:31:42;1.80;;;1.70;;
34136;SDS011;20414;50.860;4.382;2022-08-18T11:34:12;1.92;;;1.80;;
34136;SDS011;20414;50.860;4.382;2022-08-18T11:36:43;2.15;;;1.95;;
34136;SDS011;20414;50.860;4.382;2022-08-18T11:39:18;1.90;;;1.80;;
34136;SDS011;20414;50.860;4.382;2022-08-18T11:41:44;2.15;;;1.95;;
34136;SDS011;20414;50.860;4.382;2022-08-18T11:44:15;1.73;;;1.63;;
34136;SDS011;20414;50.860;4.382;2022-08-18T11:46:48;1.70;;;1.60;;
34136;SDS011;20414;50.860;4.382;2022-08-18T11:49:32;1.70;;;1.60;;
34136;SDS011;20414;50.860;4.382;2022-08-18T11:54:57;1.48;;;1.38;;
34136;SDS011;20414;50.860;4.382;2022-08-18T12:05:47;1.60;;;1.50;;
34136;SDS011;20414;50.860;4.382;2022-08-18T12:08:33;2.13;;;1.85;;
34136;SDS011;20414;50.860;4.382;2022-08-18T12:11:18;1.90;;;1.80;;
34136;SDS011;20414;50.860;4.382;2022-08-18T12:13:46;1.58;;;1.48;;
34136;SDS011;20414;50.860;4.382;2022-08-18T12:16:32;1.85;;;1.75;;
34136;SDS011;20414;50.860;4.382;2022-08-18T12:19:11;1.70;;;1.60;;
34136;SDS011;20414;50.860;4.382;2022-08-18T12:21:39;1.83;;;1.73;;
34136;SDS011;20414;50.860;4.382;2022-08-18T12:24:18;1.80;;;1.60;;
34136;SDS011;20414;50.860;4.382;2022-08-18T12:26:47;1.80;;;1.70;;
34136;SDS011;20414;50.860;4.382;2022-08-18T12:29:14;1.60;;;1.50;;
34136;SDS011;20414;50.860;4.382;2022-08-18T12:31:42;1.48;;;1.35;;
34136;SDS011;20414;50.860;4.382;2022-08-18T12:34:08;1.70;;;1.60;;
34136;SDS011;20414;50.860;4.382;2022-08-18T12:36:34;1.50;;;1.40;;
34136;SDS011;20414;50.860;4.382;2022-08-18T12:39:00;1.90;;;1.80;;
34136;SDS011;20414;50.860;4.382;2022-08-18T12:41:26;1.90;;;1.80;;
34136;SDS011;20414;50.860;4.382;2022-08-18T12:43:52;1.85;;;1.75;;
34136;SDS011;20414;50.860;4.382;2022-08-18T12:46:18;1.70;;;1.60;;
34136;SDS011;20414;50.860;4.382;2022-08-18T12:48:44;1.65;;;1.55;;
34136;SDS011;20414;50.860;4.382;2022-08-18T12:51:10;1.77;;;1.67;;
34136;SDS011;20414;50.860;4.382;2022-08-18T12:53:37;1.65;;;1.55;;
34136;SDS011;20414;50.860;4.382;2022-08-18T12:56:04;2.03;;;1.70;;
34136;SDS011;20414;50.860;4.382;2022-08-18T12:58:40;2.10;;;1.90;;
34136;SDS011;20414;50.860;4.382;2022-08-18T13:01:06;2.00;;;1.77;;
34136;SDS011;20414;50.860;4.382;2022-08-18T13:03:32;1.75;;;1.65;;
34136;SDS011;20414;50.860;4.382;2022-08-18T13:05:58;1.70;;;1.60;;
34136;SDS011;20414;50.860;4.382;2022-08-18T13:08:24;1.70;;;1.60;;
34136;SDS011;20414;50.860;4.382;2022-08-18T13:10:50;1.65;;;1.55;;
34136;SDS011;20414;50.860;4.382;2022-08-18T13:13:17;1.73;;;1.63;;
34136;SDS011;20414;50.860;4.382;2022-08-18T13:15:43;1.70;;;1.60;;
34136;SDS011;20414;50.860;4.382;2022-08-18T13:18:10;1.70;;;1.60;;
34136;SDS011;20414;50.860;4.382;2022-08-18T13:20:36;1.73;;;1.63;;
34136;SDS011;20414;50.860;4.382;2022-08-18T13:23:02;2.10;;;2.00;;
34136;SDS011;20414;50.860;4.382;2022-08-18T13:25:28;1.75;;;1.65;;
34136;SDS011;20414;50.860;4.382;2022-08-18T13:27:54;2.17;;;1.75;;
34136;SDS011;20414;50.860;4.382;2022-08-18T13:30:21;1.92;;;1.83;;
34136;SDS011;20414;50.860;4.382;2022-08-18T13:32:46;1.83;;;1.73;;
34136;SDS011;20414;50.860;4.382;2022-08-18T13:35:12;2.00;;;1.83;;
34136;SDS011;20414;50.860;4.382;2022-08-18T13:37:38;1.95;;;1.85;;
34136;SDS011;20414;50.860;4.382;2022-08-18T13:40:06;1.80;;;1.70;;
34136;SDS011;20414;50.860;4.382;2022-08-18T13:42:40;1.70;;;1.60;;
34136;SDS011;20414;50.860;4.382;2022-08-18T13:45:07;1.83;;;1.73;;
34136;SDS011;20414;50.860;4.382;2022-08-18T13:47:34;2.00;;;1.90;;
34136;SDS011;20414;50.860;4.382;2022-08-18T13:49:59;1.80;;;1.70;;
34136;SDS011;20414;50.860;4.382;2022-08-18T13:52:27;1.80;;;1.70;;
34136;SDS011;20414;50.860;4.382;2022-08-18T13:54:53;1.50;;;1.40;;
34136;SDS011;20414;50.860;4.382;2022-08-18T13:57:19;1.70;;;1.60;;
34136;SDS011;20414;50.860;4.382;2022-08-18T13:59:44;1.70;;;1.60;;
34136;SDS011;20414;50.860;4.382;2022-08-18T14:02:10;1.70;;;1.60;;
34136;SDS011;20414;50.860;4.382;2022-08-18T14:04:37;1.90;;;1.80;;
34136;SDS011;20414;50.860;4.382;2022-08-18T14:07:03;1.65;;;1.55;;
34136;SDS011;20414;50.860;4.382;2022-08-18T14:09:30;1.60;;;1.50;;
34136;SDS011;20414;50.860;4.382;2022-08-18T14:11:56;1.50;;;1.40;;
34136;SDS011;20414;50.860;4.382;2022-08-18T14:14:22;1.80;;;1.70;;
34136;SDS011;20414;50.860;4.382;2022-08-18T14:16:49;1.70;;;1.60;;
34136;SDS011;20414;50.860;4.382;2022-08-18T14:19:15;1.85;;;1.75;;
34136;SDS011;20414;50.860;4.382;2022-08-18T14:22:00;1.70;;;1.60;;
34136;SDS011;20414;50.860;4.382;2022-08-18T14:24:44;1.70;;;1.60;;
34136;SDS011;20414;50.860;4.382;2022-08-18T14:27:32;1.90;;;1.80;;
34136;SDS011;20414;50.860;4.382;2022-08-18T14:30:00;1.58;;;1.48;;
34136;SDS011;20414;50.860;4.382;2022-08-18T14:32:30;1.90;;;1.80;;
34136;SDS011;20414;50.860;4.382;2022-08-18T14:34:57;1.70;;;1.60;;
34136;SDS011;20414;50.860;4.382;2022-08-18T14:37:24;1.65;;;1.55;;
34136;SDS011;20414;50.860;4.382;2022-08-18T14:39:50;1.90;;;1.80;;
34136;SDS011;20414;50.860;4.382;2022-08-18T14:42:16;1.60;;;1.50;;
34136;SDS011;20414;50.860;4.382;2022-08-18T14:44:43;2.03;;;1.80;;
34136;SDS011;20414;50.860;4.382;2022-08-18T14:47:09;1.80;;;1.70;;
34136;SDS011;20414;50.860;4.382;2022-08-18T14:49:35;1.77;;;1.67;;
34136;SDS011;20414;50.860;4.382;2022-08-18T14:52:03;1.65;;;1.55;;
34136;SDS011;20414;50.860;4.382;2022-08-18T14:54:30;2.15;;;1.95;;
34136;SDS011;20414;50.860;4.382;2022-08-18T14:56:57;1.90;;;1.80;;
34136;SDS011;20414;50.860;4.382;2022-08-18T14:59:25;1.92;;;1.83;;
34136;SDS011;20414;50.860;4.382;2022-08-18T15:01:53;1.70;;;1.60;;
34136;SDS011;20414;50.860;4.382;2022-08-18T15:04:19;3.15;;;1.80;;
34136;SDS011;20414;50.860;4.382;2022-08-18T15:06:48;1.83;;;1.73;;
34136;SDS011;20414;50.860;4.382;2022-08-18T15:11:40;1.80;;;1.70;;
34136;SDS011;20414;50.860;4.382;2022-08-18T15:14:06;2.00;;;1.90;;
34136;SDS011;20414;50.860;4.382;2022-08-18T15:16:31;1.80;;;1.67;;
34136;SDS011;20414;50.860;4.382;2022-08-18T15:19:01;2.00;;;1.90;;
34136;SDS011;20414;50.860;4.382;2022-08-18T15:21:28;1.77;;;1.67;;
34136;SDS011;20414;50.860;4.382;2022-08-18T15:24:13;1.90;;;1.80;;
34136;SDS011;20414;50.860;4.382;2022-08-18T15:26:58;1.85;;;1.75;;
34136;SDS011;20414;50.860;4.382;2022-08-18T15:29:25;1.80;;;1.70;;
34136;SDS011;20414;50.860;4.382;2022-08-18T15:31:51;1.95;;;1.85;;
34136;SDS011;20414;50.860;4.382;2022-08-18T15:34:17;1.60;;;1.50;;
34136;SDS011;20414;50.860;4.382;2022-08-18T15:36:42;1.92;;;1.83;;
34136;SDS011;20414;50.860;4.382;2022-08-18T15:39:08;1.88;;;1.77;;
34136;SDS011;20414;50.860;4.382;2022-08-18T15:44:02;1.70;;;1.60;;
34136;SDS011;20414;50.860;4.382;2022-08-18T15:46:33;1.83;;;1.73;;
34136;SDS011;20414;50.860;4.382;2022-08-18T15:49:00;1.92;;;1.83;;
34136;SDS011;20414;50.860;4.382;2022-08-18T15:51:30;2.00;;;1.90;;
34136;SDS011;20414;50.860;4.382;2022-08-18T15:53:56;1.80;;;1.70;;
34136;SDS011;20414;50.860;4.382;2022-08-18T15:56:23;1.77;;;1.67;;
34136;SDS011;20414;50.860;4.382;2022-08-18T15:58:50;1.83;;;1.73;;
34136;SDS011;20414;50.860;4.382;2022-08-18T16:01:16;1.70;;;1.60;;
34136;SDS011;20414;50.860;4.382;2022-08-18T16:03:43;1.77;;;1.67;;
34136;SDS011;20414;50.860;4.382;2022-08-18T16:06:13;1.83;;;1.73;;
34136;SDS011;20414;50.860;4.382;2022-08-18T16:08:40;2.00;;;1.90;;
34136;SDS011;20414;50.860;4.382;2022-08-18T16:11:07;1.98;;;1.88;;
34136;SDS011;20414;50.860;4.382;2022-08-18T16:13:34;1.88;;;1.77;;
34136;SDS011;20414;50.860;4.382;2022-08-18T16:16:07;1.90;;;1.80;;
34136;SDS011;20414;50.860;4.382;2022-08-18T16:18:34;1.80;;;1.70;;
34136;SDS011;20414;50.860;4.382;2022-08-18T16:21:08;1.77;;;1.67;;
34136;SDS011;20414;50.860;4.382;2022-08-18T16:23:38;1.67;;;1.58;;
34136;SDS011;20414;50.860;4.382;2022-08-18T16:26:06;1.80;;;1.70;;
34136;SDS011;20414;50.860;4.382;2022-08-18T16:28:33;1.80;;;1.70;;
34136;SDS011;20414;50.860;4.382;2022-08-18T16:31:00;1.70;;;1.60;;
34136;SDS011;20414;50.860;4.382;2022-08-18T16:33:26;1.60;;;1.50;;
34136;SDS011;20414;50.860;4.382;2022-08-18T16:35:52;2.05;;;1.70;;
34136;SDS011;20414;50.860;4.382;2022-08-18T16:38:18;1.70;;;1.60;;
34136;SDS011;20414;50.860;4.382;2022-08-18T16:40:44;1.80;;;1.70;;
34136;SDS011;20414;50.860;4.382;2022-08-18T16:43:10;1.75;;;1.65;;
34136;SDS011;20414;50.860;4.382;2022-08-18T16:45:37;2.00;;;1.90;;
34136;SDS011;20414;50.860;4.382;2022-08-18T16:48:06;1.88;;;1.77;;
34136;SDS011;20414;50.860;4.382;2022-08-18T16:50:33;1.80;;;1.70;;
34136;SDS011;20414;50.860;4.382;2022-08-18T16:53:00;2.00;;;1.90;;
34136;SDS011;20414;50.860;4.382;2022-08-18T16:55:26;1.80;;;1.70;;
34136;SDS011;20414;50.860;4.382;2022-08-18T16:57:51;1.90;;;1.80;;
34136;SDS011;20414;50.860;4.382;2022-08-18T17:00:36;2.00;;;1.90;;
34136;SDS011;20414;50.860;4.382;2022-08-18T17:03:20;2.08;;;1.98;;
34136;SDS011;20414;50.860;4.382;2022-08-18T17:06:05;1.90;;;1.80;;
34136;SDS011;20414;50.860;4.382;2022-08-18T17:08:35;1.90;;;1.80;;
34136;SDS011;20414;50.860;4.382;2022-08-18T17:11:05;2.10;;;2.00;;
34136;SDS011;20414;50.860;4.382;2022-08-18T17:13:33;1.90;;;1.80;;
34136;SDS011;20414;50.860;4.382;2022-08-18T17:16:00;2.20;;;2.00;;
34136;SDS011;20414;50.860;4.382;2022-08-18T17:18:25;1.83;;;1.73;;
34136;SDS011;20414;50.860;4.382;2022-08-18T17:20:52;1.80;;;1.70;;
34136;SDS011;20414;50.860;4.382;2022-08-18T17:23:18;1.80;;;1.70;;
34136;SDS011;20414;50.860;4.382;2022-08-18T17:25:44;1.85;;;1.75;;
34136;SDS011;20414;50.860;4.382;2022-08-18T17:28:12;2.00;;;1.90;;
34136;SDS011;20414;50.860;4.382;2022-08-18T17:30:41;1.75;;;1.65;;
34136;SDS011;20414;50.860;4.382;2022-08-18T17:33:12;2.03;;;1.90;;
34136;SDS011;20414;50.860;4.382;2022-08-18T17:35:53;1.98;;;1.88;;
34136;SDS011;20414;50.860;4.382;2022-08-18T17:38:31;1.90;;;1.80;;
34136;SDS011;20414;50.860;4.382;2022-08-18T17:41:07;1.75;;;1.65;;
34136;SDS011;20414;50.860;4.382;2022-08-18T17:43:36;1.83;;;1.73;;
34136;SDS011;20414;50.860;4.382;2022-08-18T17:46:22;2.03;;;1.92;;
34136;SDS011;20414;50.860;4.382;2022-08-18T17:48:54;1.83;;;1.73;;
34136;SDS011;20414;50.860;4.382;2022-08-18T17:54:23;2.03;;;1.90;;
34136;SDS011;20414;50.860;4.382;2022-08-18T18:02:35;2.00;;;1.90;;
34136;SDS011;20414;50.860;4.382;2022-08-18T18:05:09;1.90;;;1.80;;